Time;durP1;ratioP1;P1;durP2;ratioP2;P2;SDS_P1;SDS_P2;PMS_P1;PMS_P2;Temp;Humidity;BMP_temperature;BMP_pressure;BME280_temperature;BME280_humidity;BME280_pressure;Samples;Min_cycle;Max_cycle;Signal;HPM_P1;HPM_P2
2023/12/19 00:00:25;;;;;;;2.50;1.25;;;;;;;;;;5056596;28;20496;-78
2023/12/19 00:02:51;;;;;;;0.63;0.63;;;;;;;;;;5054824;28;20032;-77
2023/12/19 00:05:16;;;;;;;2.00;0.98;;;;;;;;;;5056025;28;20029;-77
2023/12/19 00:07:44;;;;;;;4.70;2.53;;;;;;;;;;5056928;28;20032;-78
2023/12/19 00:10:13;;;;;;;1.27;0.90;;;;;;;;;;5058737;28;20028;-78
2023/12/19 00:12:38;;;;;;;3.72;0.82;;;;;;;;;;5058302;28;20086;-77
2023/12/19 00:15:05;;;;;;;0.73;0.73;;;;;;;;;;5056749;28;20416;-79
2023/12/19 00:17:31;;;;;;;0.40;0.40;;;;;;;;;;5054736;28;20374;-79
2023/12/19 00:19:56;;;;;;;0.68;0.50;;;;;;;;;;5056331;28;20032;-78
2023/12/19 00:22:24;;;;;;;0.30;0.30;;;;;;;;;;5055447;28;20028;-79
2023/12/19 00:24:59;;;;;;;0.65;0.65;;;;;;;;;;5053655;28;20071;-77
2023/12/19 00:27:28;;;;;;;4.22;1.23;;;;;;;;;;5053687;28;20020;-77
2023/12/19 00:30:09;;;;;;;0.40;0.40;;;;;;;;;;5052921;28;20029;-78
2023/12/19 00:32:58;;;;;;;0.50;0.50;;;;;;;;;;5051568;28;20292;-79
2023/12/19 00:35:31;;;;;;;0.65;0.65;;;;;;;;;;5051566;28;20057;-77
2023/12/19 00:38:03;;;;;;;1.50;0.57;;;;;;;;;;5083329;28;20547;-79
2023/12/19 00:41:29;;;;;;;;;;;;;;;;;;;;;
2023/12/19 00:44:20;;;;;;;0.20;0.20;;;;;;;;;;5053565;28;20036;-79
2023/12/19 00:47:40;;;;;;;;;;;;;;;;;;;;;
2023/12/19 00:50:07;;;;;;;0.25;0.25;;;;;;;;;;5072298;28;20036;-79
2023/12/19 00:52:56;;;;;;;0.60;0.40;;;;;;;;;;5072706;28;20035;-78
2023/12/19 00:55:51;;;;;;;0.88;0.75;;;;;;;;;;5068367;28;20188;-78
2023/12/19 00:58:56;;;;;;;0.50;0.50;;;;;;;;;;5059252;28;20086;-78
2023/12/19 01:01:25;;;;;;;0.43;0.43;;;;;;;;;;5070547;28;20040;-79
2023/12/19 01:03:51;;;;;;;0.47;0.47;;;;;;;;;;5073741;28;20031;-78
2023/12/19 01:06:16;;;;;;;0.43;0.43;;;;;;;;;;5060277;28;20032;-77
2023/12/19 01:08:42;;;;;;;0.60;0.60;;;;;;;;;;5076658;28;20418;-78
2023/12/19 01:11:09;;;;;;;6.10;1.70;;;;;;;;;;5073108;28;20843;-78
2023/12/19 01:13:40;;;;;;;0.32;0.32;;;;;;;;;;5057230;28;20139;-77
2023/12/19 01:16:08;;;;;;;0.28;0.22;;;;;;;;;;5074891;28;20108;-78
2023/12/19 01:18:33;;;;;;;0.75;0.75;;;;;;;;;;5059765;28;20064;-78
2023/12/19 01:21:02;;;;;;;0.20;0.20;;;;;;;;;;5054380;28;20067;-81
2023/12/19 01:23:27;;;;;;;0.30;0.30;;;;;;;;;;5058289;28;20484;-77
2023/12/19 01:25:53;;;;;;;0.28;0.25;;;;;;;;;;5053623;28;20032;-79
2023/12/19 01:28:18;;;;;;;0.30;0.30;;;;;;;;;;5055885;28;20036;-77
2023/12/19 01:30:44;;;;;;;0.95;0.95;;;;;;;;;;5056758;28;20399;-78
2023/12/19 01:33:10;;;;;;;2.38;1.30;;;;;;;;;;5050901;28;20112;-77
2023/12/19 01:35:41;;;;;;;5.00;2.72;;;;;;;;;;5057548;28;20111;-80
2023/12/19 01:38:07;;;;;;;1.35;0.70;;;;;;;;;;5056189;28;20071;-77
2023/12/19 01:40:32;;;;;;;0.73;0.65;;;;;;;;;;5085782;28;20028;-78
2023/12/19 01:42:58;;;;;;;0.52;0.52;;;;;;;;;;5054973;28;20029;-79
2023/12/19 01:45:27;;;;;;;3.20;2.22;;;;;;;;;;5056047;28;20022;-78
2023/12/19 01:47:52;;;;;;;2.55;2.15;;;;;;;;;;5057631;28;20020;-78
2023/12/19 01:50:18;;;;;;;0.80;0.80;;;;;;;;;;5055626;28;20036;-78
2023/12/19 01:52:56;;;;;;;0.35;0.35;;;;;;;;;;5058111;28;20021;-78
2023/12/19 01:55:24;;;;;;;0.55;0.55;;;;;;;;;;5057649;28;20029;-78
2023/12/19 01:57:50;;;;;;;0.20;0.20;;;;;;;;;;5087521;28;20057;-77
2023/12/19 02:00:16;;;;;;;0.70;0.60;;;;;;;;;;5052174;28;20401;-77
2023/12/19 02:02:42;;;;;;;0.60;0.60;;;;;;;;;;5056889;28;20035;-80
2023/12/19 02:05:07;;;;;;;0.75;0.70;;;;;;;;;;5056377;28;20706;-78
2023/12/19 02:07:33;;;;;;;4.28;2.03;;;;;;;;;;5058473;28;20033;-78
2023/12/19 02:10:04;;;;;;;6.03;1.67;;;;;;;;;;5053074;28;21036;-77
2023/12/19 02:12:30;;;;;;;0.30;0.30;;;;;;;;;;5054703;28;20047;-78
2023/12/19 02:14:55;;;;;;;0.10;0.10;;;;;;;;;;5055652;28;20032;-79
2023/12/19 02:17:21;;;;;;;0.30;0.30;;;;;;;;;;5050612;28;20052;-78
2023/12/19 02:19:48;;;;;;;0.25;0.25;;;;;;;;;;5055907;28;20053;-79
2023/12/19 02:22:14;;;;;;;0.70;0.68;;;;;;;;;;5053614;28;20025;-77
2023/12/19 02:24:40;;;;;;;0.50;0.50;;;;;;;;;;5054102;28;20039;-78
2023/12/19 02:27:06;;;;;;;0.40;0.40;;;;;;;;;;5055646;28;20522;-76
2023/12/19 02:29:32;;;;;;;1.63;1.05;;;;;;;;;;5054084;28;20106;-77
2023/12/19 02:31:58;;;;;;;4.05;3.65;;;;;;;;;;5056822;28;21669;-79
2023/12/19 02:34:24;;;;;;;0.70;0.70;;;;;;;;;;5083832;28;20037;-77
2023/12/19 02:36:50;;;;;;;0.90;0.77;;;;;;;;;;5055498;28;20025;-77
2023/12/19 02:39:15;;;;;;;0.45;0.45;;;;;;;;;;5054967;28;20029;-78
2023/12/19 02:41:41;;;;;;;1.65;0.95;;;;;;;;;;5058086;28;20028;-78
2023/12/19 02:44:06;;;;;;;2.78;1.98;;;;;;;;;;5061546;28;20112;-79
2023/12/19 02:46:32;;;;;;;1.92;1.60;;;;;;;;;;5063224;28;20024;-79
2023/12/19 02:48:58;;;;;;;2.17;1.48;;;;;;;;;;5057903;28;20037;-78
2023/12/19 02:51:24;;;;;;;1.83;1.73;;;;;;;;;;5063569;28;20028;-80
2023/12/19 02:53:50;;;;;;;1.20;0.63;;;;;;;;;;5059988;28;20117;-78
2023/12/19 02:56:16;;;;;;;1.40;1.20;;;;;;;;;;5059808;28;20059;-78
2023/12/19 02:58:44;;;;;;;2.08;1.65;;;;;;;;;;5061422;28;20838;-78
2023/12/19 03:01:12;;;;;;;1.30;1.02;;;;;;;;;;5055280;28;20051;-79
2023/12/19 03:03:42;;;;;;;4.05;2.10;;;;;;;;;;5056984;28;20063;-78
2023/12/19 03:06:07;;;;;;;1.80;1.10;;;;;;;;;;5059341;28;20055;-82
2023/12/19 03:08:36;;;;;;;1.02;1.02;;;;;;;;;;5060466;28;20056;-78
2023/12/19 03:11:02;;;;;;;0.98;0.98;;;;;;;;;;5055949;28;20044;-78
2023/12/19 03:13:28;;;;;;;1.50;0.82;;;;;;;;;;5058918;28;20033;-79
2023/12/19 03:15:54;;;;;;;0.50;0.50;;;;;;;;;;5090985;28;20057;-79
2023/12/19 03:18:24;;;;;;;1.92;1.15;;;;;;;;;;5056168;28;20044;-79
2023/12/19 03:20:51;;;;;;;;;;;;;;;;;;5059531;28;20032;-78
2023/12/19 03:23:20;;;;;;;0.38;0.38;;;;;;;;;;5059400;28;19912;-78
2023/12/19 03:25:48;;;;;;;0.70;0.70;;;;;;;;;;5056736;28;20033;-81
2023/12/19 03:28:14;;;;;;;0.40;0.40;;;;;;;;;;5058629;28;20096;-78
2023/12/19 03:30:40;;;;;;;2.03;1.30;;;;;;;;;;5058461;28;20067;-79
2023/12/19 03:33:05;;;;;;;0.60;0.60;;;;;;;;;;5061913;28;20116;-80
2023/12/19 03:35:31;;;;;;;0.50;0.50;;;;;;;;;;5061435;28;20035;-79
2023/12/19 03:37:57;;;;;;;1.08;0.93;;;;;;;;;;5060233;28;20478;-78
2023/12/19 03:40:22;;;;;;;0.25;0.25;;;;;;;;;;5057275;28;20035;-78
2023/12/19 03:42:48;;;;;;;0.52;0.52;;;;;;;;;;5058979;28;20135;-79
2023/12/19 03:45:14;;;;;;;0.55;0.55;;;;;;;;;;5055875;28;20478;-80
2023/12/19 03:47:40;;;;;;;0.22;0.22;;;;;;;;;;5055514;28;20071;-80
2023/12/19 03:50:06;;;;;;;1.15;0.40;;;;;;;;;;5059995;28;20466;-77
2023/12/19 03:52:32;;;;;;;0.40;0.40;;;;;;;;;;5056260;28;20063;-79
2023/12/19 03:54:58;;;;;;;0.63;0.52;;;;;;;;;;5060536;28;20052;-79
2023/12/19 03:57:23;;;;;;;0.20;0.20;;;;;;;;;;5058996;28;20068;-78
2023/12/19 03:59:49;;;;;;;0.17;0.17;;;;;;;;;;5053372;28;20020;-77
2023/12/19 04:02:15;;;;;;;0.13;0.13;;;;;;;;;;5059836;28;20469;-79
2023/12/19 04:04:40;;;;;;;0.45;0.45;;;;;;;;;;5058346;28;20028;-77
2023/12/19 04:07:05;;;;;;;1.55;0.90;;;;;;;;;;5054965;28;20084;-78
2023/12/19 04:09:34;;;;;;;0.68;0.47;;;;;;;;;;5057245;28;20041;-79
2023/12/19 04:12:02;;;;;;;0.50;0.50;;;;;;;;;;5058921;28;20040;-79
2023/12/19 04:14:31;;;;;;;0.70;0.70;;;;;;;;;;5056367;28;20036;-77
2023/12/19 04:16:57;;;;;;;0.63;0.63;;;;;;;;;;5057615;28;20107;-76
2023/12/19 04:19:23;;;;;;;0.63;0.63;;;;;;;;;;5059083;28;20063;-78
2023/12/19 04:21:49;;;;;;;0.20;0.20;;;;;;;;;;5057449;28;20044;-77
2023/12/19 04:24:15;;;;;;;1.10;0.82;;;;;;;;;;5058428;28;20111;-79
2023/12/19 04:26:42;;;;;;;0.88;0.85;;;;;;;;;;5059398;28;20135;-79
2023/12/19 04:29:10;;;;;;;1.05;0.73;;;;;;;;;;5058490;28;20107;-78
2023/12/19 04:31:36;;;;;;;1.85;1.17;;;;;;;;;;5054760;28;20020;-78
2023/12/19 04:34:02;;;;;;;0.82;0.82;;;;;;;;;;5055566;28;20051;-80
2023/12/19 04:36:30;;;;;;;0.40;0.40;;;;;;;;;;5060000;28;20552;-80
2023/12/19 04:38:55;;;;;;;0.90;0.77;;;;;;;;;;5057620;28;20033;-78
2023/12/19 04:41:23;;;;;;;0.47;0.47;;;;;;;;;;5052195;28;20058;-78
2023/12/19 04:43:48;;;;;;;0.30;0.30;;;;;;;;;;5053823;28;20116;-78
2023/12/19 04:46:14;;;;;;;0.20;0.20;;;;;;;;;;5055346;28;20104;-80
2023/12/19 04:48:43;;;;;;;0.35;0.35;;;;;;;;;;5051664;28;20811;-78
2023/12/19 04:51:22;;;;;;;0.52;0.40;;;;;;;;;;5053477;28;20488;-79
2023/12/19 04:53:48;;;;;;;0.38;0.38;;;;;;;;;;5052592;28;20025;-77
2023/12/19 04:56:13;;;;;;;1.77;1.45;;;;;;;;;;5056634;28;20029;-79
2023/12/19 04:58:43;;;;;;;0.90;0.70;;;;;;;;;;5056927;28;20048;-80
2023/12/19 05:01:08;;;;;;;1.20;0.50;;;;;;;;;;5052772;28;20028;-77
2023/12/19 05:03:37;;;;;;;0.45;0.45;;;;;;;;;;5050085;28;20036;-78
2023/12/19 05:06:04;;;;;;;0.70;0.68;;;;;;;;;;5052936;28;20038;-78
2023/12/19 05:08:30;;;;;;;0.32;0.32;;;;;;;;;;5052137;28;20410;-79
2023/12/19 05:10:55;;;;;;;0.70;0.70;;;;;;;;;;5050173;28;20040;-78
2023/12/19 05:13:23;;;;;;;0.70;0.70;;;;;;;;;;5052107;28;20028;-76
2023/12/19 05:15:50;;;;;;;1.55;1.45;;;;;;;;;;5083826;28;20044;-78
2023/12/19 05:18:18;;;;;;;1.67;1.45;;;;;;;;;;5052858;28;20021;-76
2023/12/19 05:20:47;;;;;;;1.20;0.82;;;;;;;;;;5052550;28;20087;-78
2023/12/19 05:23:12;;;;;;;0.63;0.63;;;;;;;;;;5054637;28;20031;-77
2023/12/19 05:25:37;;;;;;;1.40;0.75;;;;;;;;;;5054260;28;20034;-77
2023/12/19 05:28:03;;;;;;;1.02;0.60;;;;;;;;;;5056900;28;20024;-78
2023/12/19 05:30:29;;;;;;;0.50;0.50;;;;;;;;;;5053641;28;20044;-78
2023/12/19 05:32:54;;;;;;;0.95;0.95;;;;;;;;;;5051459;28;20079;-77
2023/12/19 05:35:20;;;;;;;0.75;0.75;;;;;;;;;;5049086;28;20104;-76
2023/12/19 05:37:46;;;;;;;6.70;2.78;;;;;;;;;;5050573;28;20079;-81
2023/12/19 05:40:12;;;;;;;1.33;1.23;;;;;;;;;;5050487;28;20469;-80
2023/12/19 05:42:37;;;;;;;4.22;3.63;;;;;;;;;;5047039;28;20024;-76
2023/12/19 05:45:03;;;;;;;2.38;1.50;;;;;;;;;;5050023;28;20391;-76
2023/12/19 05:47:29;;;;;;;1.25;1.15;;;;;;;;;;5048521;28;20556;-77
2023/12/19 05:49:55;;;;;;;0.70;0.70;;;;;;;;;;5049733;28;20032;-77
2023/12/19 05:52:20;;;;;;;0.88;0.70;;;;;;;;;;5048761;28;20058;-78
2023/12/19 05:54:45;;;;;;;1.45;1.15;;;;;;;;;;5049354;28;20104;-80
2023/12/19 05:57:11;;;;;;;0.60;0.60;;;;;;;;;;5048778;28;20465;-79
2023/12/19 05:59:37;;;;;;;2.17;0.70;;;;;;;;;;5050267;28;20037;-78
2023/12/19 06:02:02;;;;;;;1.20;1.10;;;;;;;;;;5047401;28;20029;-79
2023/12/19 06:04:28;;;;;;;0.95;0.95;;;;;;;;;;5045013;28;20037;-77
2023/12/19 06:06:53;;;;;;;0.93;0.88;;;;;;;;;;5046941;28;20636;-78
2023/12/19 06:09:18;;;;;;;0.95;0.82;;;;;;;;;;5048110;28;20491;-78
2023/12/19 06:11:44;;;;;;;0.93;0.93;;;;;;;;;;5045834;28;20032;-78
2023/12/19 06:14:09;;;;;;;2.03;1.42;;;;;;;;;;5046241;28;20433;-76
2023/12/19 06:16:35;;;;;;;1.05;1.00;;;;;;;;;;5049335;28;20052;-78
2023/12/19 06:19:00;;;;;;;0.65;0.65;;;;;;;;;;5051507;28;20472;-79
2023/12/19 06:21:25;;;;;;;1.33;1.08;;;;;;;;;;5051570;28;20078;-79
2023/12/19 06:23:54;;;;;;;3.08;1.65;;;;;;;;;;5052403;28;20029;-77
2023/12/19 06:26:20;;;;;;;1.75;1.08;;;;;;;;;;5053659;28;20377;-80
2023/12/19 06:28:45;;;;;;;5.85;2.47;;;;;;;;;;5053734;28;20028;-79
2023/12/19 06:31:10;;;;;;;3.72;1.90;;;;;;;;;;5051590;28;20029;-78
2023/12/19 06:33:36;;;;;;;4.60;1.67;;;;;;;;;;5053279;28;20035;-78
2023/12/19 06:36:03;;;;;;;3.03;2.70;;;;;;;;;;5052464;28;20028;-80
2023/12/19 06:38:28;;;;;;;1.95;1.70;;;;;;;;;;5053359;28;20027;-77
2023/12/19 06:40:54;;;;;;;13.23;3.28;;;;;;;;;;5049757;28;20443;-78
2023/12/19 06:43:19;;;;;;;4.97;3.42;;;;;;;;;;5053648;28;20029;-80
2023/12/19 06:45:45;;;;;;;2.22;2.05;;;;;;;;;;5053803;28;20048;-78
2023/12/19 06:48:10;;;;;;;3.33;2.53;;;;;;;;;;5053868;28;20025;-78
2023/12/19 06:50:39;;;;;;;2.38;1.83;;;;;;;;;;5055762;28;20025;-78
2023/12/19 06:53:04;;;;;;;3.65;2.08;;;;;;;;;;5053642;28;20024;-79
2023/12/19 06:55:30;;;;;;;2.47;1.80;;;;;;;;;;5052567;28;20044;-78
2023/12/19 06:57:56;;;;;;;3.30;1.88;;;;;;;;;;5047022;28;20045;-77
2023/12/19 07:00:22;;;;;;;5.10;3.80;;;;;;;;;;5048613;28;20033;-76
2023/12/19 07:02:47;;;;;;;1.88;1.77;;;;;;;;;;5048178;28;20029;-76
2023/12/19 07:05:12;;;;;;;9.30;4.93;;;;;;;;;;5045454;28;20056;-75
2023/12/19 07:07:38;;;;;;;11.63;5.53;;;;;;;;;;5044758;28;20040;-78
2023/12/19 07:10:03;;;;;;;9.05;6.53;;;;;;;;;;5046616;28;20453;-76
2023/12/19 07:12:29;;;;;;;5.03;2.25;;;;;;;;;;5045153;28;20083;-76
2023/12/19 07:14:55;;;;;;;4.47;3.97;;;;;;;;;;5047551;28;20089;-78
2023/12/19 07:17:22;;;;;;;8.25;4.78;;;;;;;;;;5048821;28;20021;-77
2023/12/19 07:19:47;;;;;;;9.60;4.97;;;;;;;;;;5047845;28;20028;-76
2023/12/19 07:22:13;;;;;;;6.85;5.82;;;;;;;;;;5053075;28;20017;-76
2023/12/19 07:24:39;;;;;;;11.57;5.20;;;;;;;;;;5044881;28;20029;-77
2023/12/19 07:27:04;;;;;;;4.93;4.45;;;;;;;;;;5047539;28;20044;-78
2023/12/19 07:29:30;;;;;;;2.75;2.58;;;;;;;;;;5043438;28;20112;-76
2023/12/19 07:31:58;;;;;;;4.18;3.05;;;;;;;;;;5046728;28;20044;-77
2023/12/19 07:34:23;;;;;;;4.00;3.47;;;;;;;;;;5049740;28;20029;-81
2023/12/19 07:36:48;;;;;;;5.93;4.63;;;;;;;;;;5051763;28;20504;-78
2023/12/19 07:39:14;;;;;;;8.20;4.53;;;;;;;;;;5050319;28;20025;-77
2023/12/19 07:41:39;;;;;;;6.80;4.63;;;;;;;;;;5048998;28;20725;-77
2023/12/19 07:44:09;;;;;;;6.88;6.20;;;;;;;;;;5048393;28;20021;-79
2023/12/19 07:46:39;;;;;;;9.80;4.82;;;;;;;;;;5050495;28;20412;-76
2023/12/19 07:49:04;;;;;;;7.25;4.43;;;;;;;;;;5050168;28;20025;-77
2023/12/19 07:51:30;;;;;;;4.10;3.53;;;;;;;;;;5051963;28;20108;-76
2023/12/19 07:53:55;;;;;;;9.45;5.38;;;;;;;;;;5048385;28;20140;-78
2023/12/19 07:56:21;;;;;;;5.22;4.47;;;;;;;;;;5050913;28;20024;-76
2023/12/19 07:58:46;;;;;;;8.02;3.70;;;;;;;;;;5050728;28;20078;-76
2023/12/19 08:01:12;;;;;;;6.93;5.50;;;;;;;;;;5051229;28;20116;-76
2023/12/19 08:03:38;;;;;;;7.10;4.70;;;;;;;;;;5048463;28;20033;-77
2023/12/19 08:06:05;;;;;;;6.40;3.60;;;;;;;;;;5050359;28;20091;-78
2023/12/19 08:08:31;;;;;;;5.75;3.45;;;;;;;;;;5051770;28;20032;-78
2023/12/19 08:10:56;;;;;;;8.88;5.20;;;;;;;;;;5051782;28;20135;-76
2023/12/19 08:13:22;;;;;;;5.90;5.22;;;;;;;;;;5051131;28;20017;-79
2023/12/19 08:15:48;;;;;;;7.63;5.25;;;;;;;;;;5050830;28;20716;-76
2023/12/19 08:18:14;;;;;;;10.50;4.55;;;;;;;;;;5048624;28;20029;-76
2023/12/19 08:20:41;;;;;;;9.02;4.28;;;;;;;;;;5048953;28;20061;-78
2023/12/19 08:23:07;;;;;;;7.30;5.50;;;;;;;;;;5049423;28;20040;-77
2023/12/19 08:25:33;;;;;;;7.47;4.32;;;;;;;;;;5051249;28;20024;-77
2023/12/19 08:27:58;;;;;;;10.38;5.13;;;;;;;;;;5050936;28;20119;-77
2023/12/19 08:30:27;;;;;;;11.18;5.30;;;;;;;;;;5049042;28;20060;-78
2023/12/19 08:32:54;;;;;;;11.50;6.63;;;;;;;;;;5050963;28;20118;-79
2023/12/19 08:35:19;;;;;;;6.00;4.55;;;;;;;;;;5046607;28;20037;-77
2023/12/19 08:37:45;;;;;;;13.48;4.95;;;;;;;;;;5050823;28;20075;-76
2023/12/19 08:40:11;;;;;;;10.18;6.85;;;;;;;;;;5049665;28;20033;-81
2023/12/19 08:42:36;;;;;;;9.38;6.70;;;;;;;;;;5050368;28;20031;-76
2023/12/19 08:45:02;;;;;;;8.65;7.75;;;;;;;;;;5049047;28;20037;-78
2023/12/19 08:47:28;;;;;;;17.20;8.55;;;;;;;;;;5050369;28;20020;-79
2023/12/19 08:49:53;;;;;;;11.38;7.18;;;;;;;;;;5050291;28;20031;-77
2023/12/19 08:52:22;;;;;;;8.13;6.25;;;;;;;;;;5048972;28;20086;-78
2023/12/19 08:54:48;;;;;;;11.47;7.83;;;;;;;;;;5048135;28;20124;-77
2023/12/19 08:57:14;;;;;;;9.85;6.40;;;;;;;;;;5049516;28;20360;-79
2023/12/19 08:59:40;;;;;;;10.30;8.27;;;;;;;;;;5049727;28;20029;-78
2023/12/19 09:02:06;;;;;;;8.63;7.55;;;;;;;;;;5051004;28;20025;-78
2023/12/19 09:04:31;;;;;;;18.83;10.10;;;;;;;;;;5048649;28;20139;-80
2023/12/19 09:06:56;;;;;;;11.13;6.82;;;;;;;;;;5050199;28;20029;-78
2023/12/19 09:09:22;;;;;;;9.90;7.13;;;;;;;;;;5047401;28;20397;-78
2023/12/19 09:11:47;;;;;;;11.40;6.43;;;;;;;;;;5047111;28;20032;-78
2023/12/19 09:14:14;;;;;;;10.27;7.13;;;;;;;;;;5048387;28;20029;-79
2023/12/19 09:16:40;;;;;;;9.35;8.40;;;;;;;;;;5049738;28;20690;-79
2023/12/19 09:19:05;;;;;;;12.60;7.95;;;;;;;;;;5050677;28;20017;-79
2023/12/19 09:21:31;;;;;;;14.65;9.48;;;;;;;;;;5047574;28;20051;-78
2023/12/19 09:23:56;;;;;;;9.98;7.40;;;;;;;;;;5050561;28;20377;-79
2023/12/19 09:26:22;;;;;;;9.63;7.75;;;;;;;;;;5048083;28;20060;-81
2023/12/19 09:28:47;;;;;;;9.40;6.93;;;;;;;;;;5082280;28;20450;-78
2023/12/19 09:31:13;;;;;;;13.35;8.82;;;;;;;;;;5050481;28;20048;-80
2023/12/19 09:33:39;;;;;;;10.85;7.70;;;;;;;;;;5050587;28;20020;-80
2023/12/19 09:36:09;;;;;;;12.25;8.35;;;;;;;;;;5050478;28;20036;-81
2023/12/19 09:38:35;;;;;;;16.35;10.63;;;;;;;;;;5050486;28;20024;-79
2023/12/19 09:41:02;;;;;;;20.80;11.35;;;;;;;;;;5047692;28;20055;-77
2023/12/19 09:43:31;;;;;;;14.23;9.63;;;;;;;;;;5047321;28;20394;-78
2023/12/19 09:46:01;;;;;;;12.20;9.25;;;;;;;;;;5051538;28;21931;-80
2023/12/19 09:48:30;;;;;;;11.50;8.95;;;;;;;;;;5050077;28;20508;-80
2023/12/19 09:51:00;;;;;;;14.32;9.65;;;;;;;;;;5050506;28;20043;-80
2023/12/19 09:53:30;;;;;;;8.82;8.02;;;;;;;;;;5049883;28;20435;-79
2023/12/19 09:55:56;;;;;;;13.25;11.88;;;;;;;;;;5046713;28;20060;-78
2023/12/19 09:58:23;;;;;;;12.85;10.55;;;;;;;;;;5049573;28;20048;-78
2023/12/19 10:00:51;;;;;;;20.95;12.63;;;;;;;;;;5049356;28;20021;-78
2023/12/19 10:03:16;;;;;;;12.07;10.45;;;;;;;;;;5050403;28;20021;-79
2023/12/19 10:05:45;;;;;;;14.45;10.20;;;;;;;;;;5049454;28;20120;-78
2023/12/19 10:08:10;;;;;;;25.63;12.73;;;;;;;;;;5045354;28;20067;-78
2023/12/19 10:10:52;;;;;;;14.25;10.40;;;;;;;;;;5048631;28;20033;-80
2023/12/19 10:13:46;;;;;;;15.63;10.32;;;;;;;;;;5048714;28;20025;-80
2023/12/19 10:16:13;;;;;;;14.23;9.90;;;;;;;;;;5048162;28;20119;-79
2023/12/19 10:18:39;;;;;;;13.43;9.45;;;;;;;;;;5048762;28;20447;-79
2023/12/19 10:21:14;;;;;;;13.40;11.07;;;;;;;;;;5050451;28;20056;-81
2023/12/19 10:23:43;;;;;;;15.75;12.45;;;;;;;;;;5048395;28;20029;-79
2023/12/19 10:26:10;;;;;;;19.75;11.48;;;;;;;;;;5049103;28;20514;-80
2023/12/19 10:28:36;;;;;;;18.25;12.50;;;;;;;;;;5045607;28;20033;-78
2023/12/19 10:31:15;;;;;;;17.95;11.50;;;;;;;;;;5049274;28;20086;-80
2023/12/19 10:33:54;;;;;;;28.15;14.10;;;;;;;;;;5047175;28;20408;-79
2023/12/19 10:36:27;;;;;;;19.20;12.63;;;;;;;;;;5047100;28;20481;-78
2023/12/19 10:38:54;;;;;;;20.17;13.32;;;;;;;;;;5045882;28;20029;-80
2023/12/19 10:41:26;;;;;;;12.18;10.75;;;;;;;;;;5045971;28;20032;-80
2023/12/19 10:43:55;;;;;;;19.00;14.20;;;;;;;;;;5043655;28;20029;-79
2023/12/19 10:46:24;;;;;;;14.38;10.00;;;;;;;;;;5044327;28;20729;-78
2023/12/19 10:48:52;;;;;;;13.15;10.52;;;;;;;;;;5047305;28;20495;-77
2023/12/19 10:51:28;;;;;;;14.82;10.50;;;;;;;;;;5042662;28;20033;-78
2023/12/19 10:54:00;;;;;;;15.73;10.88;;;;;;;;;;5046680;28;20389;-79
2023/12/19 10:56:34;;;;;;;16.05;11.07;;;;;;;;;;5045813;28;20032;-79
2023/12/19 10:59:04;;;;;;;6.80;5.97;;;;;;;;;;5046432;28;20045;-79
2023/12/19 11:01:39;;;;;;;9.45;7.88;;;;;;;;;;5047959;28;20051;-80
2023/12/19 11:04:22;;;;;;;12.05;8.65;;;;;;;;;;5042623;28;20370;-85
2023/12/19 11:06:56;;;;;;;9.57;7.40;;;;;;;;;;5049922;28;20071;-81
2023/12/19 11:09:34;;;;;;;13.65;9.43;;;;;;;;;;5051491;28;20032;-80
2023/12/19 11:12:00;;;;;;;14.38;8.70;;;;;;;;;;5052630;28;20115;-80
2023/12/19 11:14:26;;;;;;;15.82;12.23;;;;;;;;;;5054397;28;20130;-81
2023/12/19 11:16:57;;;;;;;13.00;8.73;;;;;;;;;;5053957;28;20021;-81
2023/12/19 11:19:32;;;;;;;11.88;9.35;;;;;;;;;;5055368;28;20025;-81
2023/12/19 11:22:09;;;;;;;7.13;6.40;;;;;;;;;;5053272;28;20037;-81
2023/12/19 11:24:41;;;;;;;8.13;6.32;;;;;;;;;;5055598;28;20033;-80
2023/12/19 11:27:21;;;;;;;12.95;10.60;;;;;;;;;;5055876;28;20021;-81
2023/12/19 11:29:50;;;;;;;;;;;;;;;;;;5054358;28;20541;-79
2023/12/19 11:32:39;;;;;;;15.02;9.57;;;;;;;;;;5054880;28;19919;-80
2023/12/19 11:35:12;;;;;;;16.00;10.90;;;;;;;;;;5052930;28;20083;-81
2023/12/19 11:37:44;;;;;;;23.42;11.82;;;;;;;;;;5054318;28;20140;-81
2023/12/19 11:40:36;;;;;;;13.60;9.57;;;;;;;;;;5053738;28;20108;-79
2023/12/19 11:43:01;;;;;;;20.02;11.27;;;;;;;;;;5053572;28;20025;-79
2023/12/19 11:45:34;;;;;;;16.42;11.07;;;;;;;;;;5052507;28;20115;-80
2023/12/19 11:47:59;;;;;;;18.85;13.07;;;;;;;;;;5052124;28;20024;-80
2023/12/19 11:50:40;;;;;;;10.18;9.25;;;;;;;;;;5052418;28;20027;-80
2023/12/19 11:53:09;;;;;;;21.17;8.85;;;;;;;;;;5054042;28;20035;-80
2023/12/19 11:55:34;;;;;;;13.98;9.93;;;;;;;;;;5052125;28;20029;-80
2023/12/19 11:58:12;;;;;;;23.40;11.35;;;;;;;;;;5053809;28;20055;-80
2023/12/19 12:00:38;;;;;;;8.93;7.88;;;;;;;;;;5050477;28;20389;-79
2023/12/19 12:03:08;;;;;;;15.80;11.13;;;;;;;;;;5048377;28;20033;-86
2023/12/19 12:05:34;;;;;;;15.55;7.55;;;;;;;;;;5048813;28;20033;-81
2023/12/19 12:07:59;;;;;;;10.65;8.95;;;;;;;;;;5050045;28;20032;-77
2023/12/19 12:10:26;;;;;;;19.23;10.20;;;;;;;;;;5050782;28;20028;-81
2023/12/19 12:12:53;;;;;;;20.83;11.60;;;;;;;;;;5049120;28;20487;-82
2023/12/19 12:15:28;;;;;;;13.85;10.25;;;;;;;;;;5050834;28;20103;-78
2023/12/19 12:18:06;;;;;;;21.15;9.40;;;;;;;;;;5052169;28;20029;-79
2023/12/19 12:20:47;;;;;;;14.55;8.73;;;;;;;;;;5050372;28;20035;-78
2023/12/19 12:23:16;;;;;;;12.88;8.18;;;;;;;;;;5084495;28;20028;-79
2023/12/19 12:25:42;;;;;;;14.52;9.50;;;;;;;;;;5051326;28;20127;-79
2023/12/19 12:28:14;;;;;;;10.60;7.13;;;;;;;;;;5050707;28;20116;-80
2023/12/19 12:30:40;;;;;;;4.00;3.20;;;;;;;;;;5052822;28;20366;-80
2023/12/19 12:33:06;;;;;;;1.92;1.60;;;;;;;;;;5050380;28;20051;-79
2023/12/19 12:35:36;;;;;;;3.50;3.15;;;;;;;;;;5049958;28;20029;-79
2023/12/19 12:38:07;;;;;;;2.40;2.10;;;;;;;;;;5051608;28;20025;-79
2023/12/19 12:40:35;;;;;;;7.85;4.30;;;;;;;;;;5051080;28;20037;-80
2023/12/19 12:43:49;;;;;;;5.15;3.58;;;;;;;;;;5051460;28;20029;-80
2023/12/19 12:46:18;;;;;;;2.35;1.33;;;;;;;;;;5051369;28;20500;-80
2023/12/19 12:49:00;;;;;;;1.40;1.00;;;;;;;;;;5049965;28;20033;-79
2023/12/19 12:51:26;;;;;;;0.73;0.73;;;;;;;;;;5049345;28;20274;-79
2023/12/19 12:53:59;;;;;;;2.22;1.73;;;;;;;;;;5049869;28;20025;-79
2023/12/19 12:56:35;;;;;;;4.40;2.95;;;;;;;;;;5051453;28;20033;-81
2023/12/19 12:59:08;;;;;;;2.45;1.83;;;;;;;;;;5051102;28;20084;-78
2023/12/19 13:01:38;;;;;;;5.15;2.78;;;;;;;;;;5050258;28;20390;-80
2023/12/19 13:04:04;;;;;;;2.83;2.38;;;;;;;;;;5048813;28;20116;-79
2023/12/19 13:06:29;;;;;;;6.00;2.50;;;;;;;;;;5049826;28;20107;-79
2023/12/19 13:08:55;;;;;;;1.73;1.60;;;;;;;;;;5051105;28;20028;-79
2023/12/19 13:11:22;;;;;;;0.63;0.63;;;;;;;;;;5049209;28;20041;-80
2023/12/19 13:13:48;;;;;;;0.75;0.75;;;;;;;;;;5049949;28;20021;-80
2023/12/19 13:16:13;;;;;;;1.63;1.05;;;;;;;;;;5050712;28;20032;-80
2023/12/19 13:18:39;;;;;;;3.70;2.80;;;;;;;;;;5050238;28;20039;-78
2023/12/19 13:21:07;;;;;;;3.00;2.03;;;;;;;;;;5050222;28;20477;-78
2023/12/19 13:23:33;;;;;;;2.63;2.03;;;;;;;;;;5046260;28;20409;-79
2023/12/19 13:25:58;;;;;;;1.25;0.95;;;;;;;;;;5049463;28;20052;-79
2023/12/19 13:28:26;;;;;;;5.07;2.40;;;;;;;;;;5049629;28;20021;-78
2023/12/19 13:30:52;;;;;;;3.33;2.80;;;;;;;;;;5050190;28;20525;-79
2023/12/19 13:33:17;;;;;;;1.20;1.10;;;;;;;;;;5050196;28;20097;-79
2023/12/19 13:35:43;;;;;;;2.45;1.95;;;;;;;;;;5047781;28;20044;-78
2023/12/19 13:38:09;;;;;;;0.98;0.90;;;;;;;;;;5049224;28;20074;-78
2023/12/19 13:40:36;;;;;;;2.78;1.80;;;;;;;;;;5044866;28;20025;-79
2023/12/19 13:43:04;;;;;;;3.88;1.45;;;;;;;;;;5046192;28;20020;-78
2023/12/19 13:45:32;;;;;;;3.55;1.83;;;;;;;;;;5045362;28;20489;-78
2023/12/19 13:48:00;;;;;;;1.40;0.93;;;;;;;;;;5046393;28;20032;-78
2023/12/19 13:50:28;;;;;;;1.05;1.05;;;;;;;;;;5046660;28;20055;-77
2023/12/19 13:52:54;;;;;;;0.77;0.52;;;;;;;;;;5046857;28;20373;-77
2023/12/19 13:55:19;;;;;;;1.63;1.52;;;;;;;;;;5046074;28;20025;-78
2023/12/19 13:57:45;;;;;;;5.05;1.88;;;;;;;;;;5047563;28;20183;-78
2023/12/19 14:00:20;;;;;;;1.80;1.35;;;;;;;;;;5048178;28;20028;-78
2023/12/19 14:02:46;;;;;;;2.53;1.80;;;;;;;;;;5047421;28;20416;-77
2023/12/19 14:05:12;;;;;;;1.95;1.83;;;;;;;;;;5048152;28;20032;-78
2023/12/19 14:07:38;;;;;;;1.13;0.90;;;;;;;;;;5048035;28;20029;-77
2023/12/19 14:10:06;;;;;;;0.60;0.60;;;;;;;;;;5044939;28;20112;-78
2023/12/19 14:12:32;;;;;;;4.57;2.05;;;;;;;;;;5045390;28;20032;-78
2023/12/19 14:14:58;;;;;;;0.60;0.60;;;;;;;;;;5046397;28;20032;-78
2023/12/19 14:17:23;;;;;;;3.50;1.77;;;;;;;;;;5046027;28;20064;-78
2023/12/19 14:19:49;;;;;;;2.10;1.10;;;;;;;;;;5046093;28;20021;-80
2023/12/19 14:22:14;;;;;;;2.05;0.82;;;;;;;;;;5046828;28;20035;-79
2023/12/19 14:24:40;;;;;;;1.50;0.80;;;;;;;;;;5044598;28;20040;-78
2023/12/19 14:27:05;;;;;;;2.58;0.73;;;;;;;;;;5042970;28;20040;-79
2023/12/19 14:29:32;;;;;;;0.63;0.63;;;;;;;;;;5045905;28;20041;-81
2023/12/19 14:31:57;;;;;;;0.55;0.55;;;;;;;;;;5046016;28;20028;-79
2023/12/19 14:34:23;;;;;;;1.45;1.00;;;;;;;;;;5045427;28;20031;-76
2023/12/19 14:36:48;;;;;;;0.57;0.57;;;;;;;;;;5043706;28;20034;-78
2023/12/19 14:39:13;;;;;;;0.43;0.43;;;;;;;;;;5046552;28;20541;-80
2023/12/19 14:41:39;;;;;;;0.60;0.60;;;;;;;;;;5050359;28;20025;-79
2023/12/19 14:44:06;;;;;;;0.73;0.73;;;;;;;;;;5047977;28;20052;-79
2023/12/19 14:46:32;;;;;;;2.10;0.95;;;;;;;;;;5052000;28;20036;-78